createdAt,value
2022-10-11T00:00:55.917Z,99.90
2022-10-11T00:03:24.062Z,99.90
2022-10-11T00:05:53.874Z,99.90
2022-10-11T00:08:22.288Z,99.90
2022-10-11T00:10:59.931Z,99.90
2022-10-11T00:13:28.665Z,99.90
2022-10-11T00:15:57.201Z,99.90
2022-10-11T00:18:25.677Z,99.90
2022-10-11T00:21:02.951Z,99.90
2022-10-11T00:23:31.047Z,99.90
2022-10-11T00:26:02.142Z,99.90
2022-10-11T00:28:30.949Z,99.90
2022-10-11T00:30:59.097Z,99.90
2022-10-11T00:33:27.624Z,99.90
2022-10-11T00:35:56.857Z,99.90
2022-10-11T00:38:25.115Z,99.90
2022-10-11T00:40:53.325Z,99.90
2022-10-11T00:43:25.638Z,99.90
2022-10-11T00:46:06.732Z,99.90
2022-10-11T00:48:41.257Z,99.90
2022-10-11T00:51:17.730Z,99.90
2022-10-11T00:53:48.153Z,99.90
2022-10-11T00:56:21.746Z,99.90
2022-10-11T00:58:51.625Z,99.90
2022-10-11T01:01:19.818Z,99.90
2022-10-11T01:03:48.001Z,99.90
2022-10-11T01:06:16.913Z,99.90
2022-10-11T01:08:45.653Z,99.90
2022-10-11T01:11:17.040Z,99.90
2022-10-11T01:13:55.477Z,99.90
2022-10-11T01:16:29.609Z,99.90
2022-10-11T01:19:07.132Z,99.90
2022-10-11T01:21:42.782Z,99.90
2022-10-11T01:24:43.017Z,99.90
2022-10-11T01:27:39.045Z,99.90
2022-10-11T01:30:25.343Z,99.90
2022-10-11T01:33:07.335Z,99.90
2022-10-11T01:35:41.862Z,99.90
2022-10-11T01:38:15.567Z,99.90
2022-10-11T01:40:48.176Z,99.90
2022-10-11T01:43:17.650Z,99.90
2022-10-11T01:45:50.697Z,99.90
2022-10-11T01:48:18.919Z,99.90
2022-10-11T01:50:51.191Z,99.90
2022-10-11T01:53:46.981Z,99.90
2022-10-11T01:56:25.422Z,99.90
2022-10-11T01:59:09.273Z,99.90
2022-10-11T02:01:48.705Z,99.90
2022-10-11T02:04:21.877Z,99.90
2022-10-11T02:06:57.849Z,99.90
2022-10-11T02:09:31.053Z,99.90
2022-10-11T02:12:06.506Z,99.90
2022-10-11T02:14:38.043Z,99.90
2022-10-11T02:17:11.363Z,99.90
2022-10-11T02:19:43.980Z,99.90
2022-10-11T02:22:16.753Z,99.90
2022-10-11T02:24:49.008Z,99.90
2022-10-11T02:27:21.312Z,99.90
2022-10-11T02:29:51.719Z,99.90
2022-10-11T02:32:22.564Z,99.90
2022-10-11T02:34:54.839Z,99.90
2022-10-11T02:37:31.644Z,99.90
2022-10-11T02:40:05.190Z,99.90
2022-10-11T02:42:37.856Z,99.90
2022-10-11T02:45:11.934Z,99.90
2022-10-11T02:47:42.941Z,99.90
2022-10-11T02:50:12.518Z,99.90
2022-10-11T02:52:40.959Z,99.90
2022-10-11T02:55:10.154Z,99.90
2022-10-11T02:57:39.273Z,99.90
2022-10-11T03:00:09.083Z,99.90
2022-10-11T03:02:37.504Z,99.90
2022-10-11T03:05:07.422Z,99.90
2022-10-11T03:07:35.576Z,99.90
2022-10-11T03:10:03.749Z,99.90
2022-10-11T03:12:31.967Z,99.90
2022-10-11T03:15:00.086Z,99.90
2022-10-11T03:17:36.836Z,99.90
2022-10-11T03:20:08.662Z,99.90
2022-10-11T03:22:36.836Z,99.90
2022-10-11T03:25:05.498Z,99.90
2022-10-11T03:27:34.081Z,99.90
2022-10-11T03:30:02.831Z,99.90
2022-10-11T03:32:31.168Z,99.90
2022-10-11T03:34:59.261Z,99.90
2022-10-11T03:37:28.943Z,99.90
2022-10-11T03:39:57.098Z,99.90
2022-10-11T03:42:25.345Z,99.90
2022-10-11T03:44:53.540Z,99.90
2022-10-11T03:47:21.645Z,99.90
2022-10-11T03:49:49.857Z,99.90
2022-10-11T03:52:18.117Z,99.90
2022-10-11T03:54:47.587Z,99.90
2022-10-11T03:57:15.753Z,99.90
2022-10-11T03:59:43.875Z,99.90
2022-10-11T04:02:12.190Z,99.90
2022-10-11T04:04:40.439Z,99.90
2022-10-11T04:07:08.617Z,99.90
2022-10-11T04:09:36.706Z,99.90
2022-10-11T04:12:06.487Z,99.90
2022-10-11T04:14:34.618Z,99.90
2022-10-11T04:17:02.766Z,99.90
2022-10-11T04:19:30.857Z,99.90
2022-10-11T04:21:59.091Z,99.90
2022-10-11T04:24:27.192Z,99.90
2022-10-11T04:26:55.291Z,99.90
2022-10-11T04:29:28.790Z,99.90
2022-10-11T04:32:00.455Z,99.90
2022-10-11T04:34:28.676Z,99.90
2022-10-11T04:36:56.836Z,99.90
2022-10-11T04:39:24.997Z,99.90
2022-10-11T04:41:53.102Z,99.90
2022-10-11T04:44:21.215Z,99.90
2022-10-11T04:46:50.688Z,99.90
2022-10-11T04:49:18.850Z,99.90
2022-10-11T04:51:46.956Z,99.90
2022-10-11T04:54:15.062Z,99.90
2022-10-11T04:56:43.223Z,99.90
2022-10-11T04:59:11.788Z,99.90
2022-10-11T05:01:40.062Z,99.90
2022-10-11T05:04:10.022Z,99.90
2022-10-11T05:06:38.103Z,99.90
2022-10-11T05:09:06.248Z,99.90
2022-10-11T05:11:34.348Z,99.90
2022-10-11T05:14:02.470Z,99.90
2022-10-11T05:16:30.654Z,99.90
2022-10-11T05:18:58.738Z,99.90
2022-10-11T05:21:30.380Z,99.90
2022-10-11T05:23:59.348Z,99.90
2022-10-11T05:26:28.868Z,99.90
2022-10-11T05:28:57.616Z,99.90
2022-10-11T05:31:25.927Z,99.90
2022-10-11T05:33:54.060Z,99.90
2022-10-11T05:36:22.311Z,99.90
2022-10-11T05:38:51.744Z,99.90
2022-10-11T05:41:19.901Z,99.90
2022-10-11T05:43:48.114Z,99.90
2022-10-11T05:46:16.797Z,99.90
2022-10-11T05:48:45.353Z,99.90
2022-10-11T05:51:14.106Z,99.90
2022-10-11T05:53:42.417Z,99.90
2022-10-11T05:56:21.862Z,99.90
2022-10-11T05:58:50.303Z,99.90
2022-10-11T06:01:22.786Z,99.90
2022-10-11T06:03:50.956Z,99.90
2022-10-11T06:06:19.982Z,99.90
2022-10-11T06:08:48.527Z,99.90
2022-10-11T06:11:20.683Z,99.90
2022-10-11T06:13:48.761Z,99.90
2022-10-11T06:16:17.126Z,99.90
2022-10-11T06:18:45.404Z,99.90
2022-10-11T06:21:15.481Z,99.90
2022-10-11T06:23:43.632Z,99.90
2022-10-11T06:26:12.006Z,99.90
2022-10-11T06:28:41.612Z,99.90
2022-10-11T06:31:09.750Z,99.90
2022-10-11T06:33:38.022Z,99.90
2022-10-11T06:36:08.504Z,99.90
2022-10-11T06:38:40.970Z,99.90
2022-10-11T06:41:14.097Z,99.90
2022-10-11T06:43:43.557Z,99.90
2022-10-11T06:46:12.434Z,99.90
2022-10-11T06:48:41.664Z,99.90
2022-10-11T06:51:09.942Z,99.90
2022-10-11T06:53:38.230Z,99.90
2022-10-11T06:56:08.788Z,99.90
2022-10-11T06:58:37.797Z,99.90
2022-10-11T07:01:09.951Z,99.90
2022-10-11T07:03:38.496Z,99.90
2022-10-11T07:06:09.937Z,99.90
2022-10-11T07:08:39.083Z,99.90
2022-10-11T07:11:09.385Z,99.90
2022-10-11T07:13:38.271Z,99.90
2022-10-11T07:16:11.340Z,99.90
2022-10-11T07:18:39.883Z,99.90
2022-10-11T07:21:11.469Z,99.90
2022-10-11T07:23:39.723Z,99.90
2022-10-11T07:26:09.901Z,99.90
2022-10-11T07:28:39.090Z,99.90
2022-10-11T07:31:10.841Z,99.90
2022-10-11T07:33:38.939Z,99.90
2022-10-11T07:36:08.345Z,99.90
2022-10-11T07:38:39.653Z,99.90
2022-10-11T07:41:08.679Z,99.90
2022-10-11T07:43:37.604Z,99.90
2022-10-11T07:46:08.537Z,99.90
2022-10-11T07:48:37.807Z,99.90
2022-10-11T07:51:08.149Z,99.90
2022-10-11T07:53:40.681Z,99.90
2022-10-11T07:56:09.954Z,99.90
2022-10-11T07:58:38.090Z,99.90
2022-10-11T08:01:08.963Z,99.90
2022-10-11T08:03:37.656Z,99.90
2022-10-11T08:06:09.707Z,99.90
2022-10-11T08:08:38.756Z,99.90
2022-10-11T08:11:07.561Z,99.90
2022-10-11T08:13:35.839Z,99.90
2022-10-11T08:16:12.208Z,99.90
2022-10-11T08:18:43.923Z,99.90
2022-10-11T08:21:16.035Z,99.90
2022-10-11T08:23:44.181Z,99.90
2022-10-11T08:26:12.674Z,99.90
2022-10-11T08:28:40.882Z,99.90
2022-10-11T08:31:13.994Z,99.90
2022-10-11T08:33:42.076Z,99.90
2022-10-11T08:36:11.495Z,99.90
2022-10-11T08:38:40.504Z,99.90
2022-10-11T08:41:26.507Z,99.90
2022-10-11T08:44:03.652Z,99.90
2022-10-11T08:46:35.090Z,99.90
2022-10-11T08:49:04.145Z,99.90
2022-10-11T08:51:36.438Z,99.90
2022-10-11T08:54:08.349Z,99.90
2022-10-11T08:56:38.796Z,99.90
2022-10-11T08:59:25.574Z,99.90
2022-10-11T09:02:02.552Z,99.90
2022-10-11T09:04:32.312Z,99.90
2022-10-11T09:07:07.236Z,99.90
2022-10-11T09:09:54.370Z,99.90
2022-10-11T09:12:34.289Z,98.60
2022-10-11T09:15:19.043Z,97.90
2022-10-11T09:18:15.636Z,97.40
2022-10-11T09:21:00.867Z,97.30
2022-10-11T09:23:48.161Z,97.70
2022-10-11T09:26:23.055Z,96.70
2022-10-11T09:29:01.210Z,97.70
2022-10-11T09:31:30.692Z,97.40
2022-10-11T09:34:12.026Z,96.70
2022-10-11T09:36:45.777Z,97.30
2022-10-11T09:39:26.465Z,96.00
2022-10-11T09:42:00.039Z,96.80
2022-10-11T09:44:29.630Z,97.10
2022-10-11T09:46:58.834Z,95.00
2022-10-11T09:49:33.090Z,95.00
2022-10-11T09:52:04.038Z,93.70
2022-10-11T09:54:40.408Z,95.00
2022-10-11T09:57:22.709Z,94.90
2022-10-11T10:00:07.005Z,95.50
2022-10-11T10:02:43.209Z,91.70
2022-10-11T10:05:20.193Z,87.50
2022-10-11T10:08:20.232Z,79.20
2022-10-11T10:10:55.779Z,79.10
2022-10-11T10:13:30.215Z,80.60
2022-10-11T10:15:59.943Z,87.60
2022-10-11T10:18:33.829Z,89.00
2022-10-11T10:21:04.839Z,85.90
2022-10-11T10:23:34.875Z,76.80
2022-10-11T10:26:18.226Z,73.90
2022-10-11T10:28:58.239Z,70.70
2022-10-11T10:31:30.811Z,69.90
2022-10-11T10:33:59.766Z,71.50
2022-10-11T10:36:33.947Z,67.20
2022-10-11T10:39:10.111Z,66.60
2022-10-11T10:41:38.238Z,66.20
2022-10-11T10:44:06.955Z,66.60
2022-10-11T10:46:51.774Z,66.80
2022-10-11T10:49:52.704Z,69.80
2022-10-11T10:52:42.832Z,72.50
2022-10-11T10:55:21.846Z,75.00
2022-10-11T10:58:00.377Z,69.20
2022-10-11T11:00:35.039Z,64.00
2022-10-11T11:03:04.753Z,61.00
2022-10-11T11:05:42.947Z,58.20
2022-10-11T11:08:17.091Z,60.60
2022-10-11T11:10:53.046Z,61.10
2022-10-11T11:13:29.753Z,63.70
2022-10-11T11:16:12.086Z,65.30
2022-10-11T11:18:46.461Z,67.90
2022-10-11T11:21:41.238Z,65.90
2022-10-11T11:24:19.521Z,61.70
2022-10-11T11:26:53.591Z,57.90
2022-10-11T11:29:34.874Z,57.60
2022-10-11T11:32:15.483Z,54.90
2022-10-11T11:34:47.525Z,55.10
2022-10-11T11:37:24.006Z,61.80
2022-10-11T11:39:58.208Z,66.90
2022-10-11T11:42:32.229Z,69.10
2022-10-11T11:45:06.386Z,70.30
2022-10-11T11:47:38.629Z,72.10
2022-10-11T11:50:22.300Z,74.00
2022-10-11T11:52:53.960Z,76.70
2022-10-11T11:55:32.469Z,72.40
2022-10-11T11:58:13.575Z,68.80
2022-10-11T12:00:51.895Z,69.30
2022-10-11T12:03:24.855Z,65.20
2022-10-11T12:06:20.137Z,59.80
2022-10-11T12:08:50.604Z,59.90
2022-10-11T12:11:25.248Z,63.20
2022-10-11T12:13:55.357Z,63.90
2022-10-11T12:16:24.382Z,64.50
2022-10-11T12:19:00.503Z,63.10
2022-10-11T12:21:32.926Z,65.30
2022-10-11T12:24:10.158Z,66.40
2022-10-11T12:26:41.903Z,67.10
2022-10-11T12:29:42.741Z,69.10
2022-10-11T12:32:51.104Z,71.90
2022-10-11T12:35:40.045Z,69.70
2022-10-11T12:38:16.980Z,69.70
2022-10-11T12:40:47.694Z,67.10
2022-10-11T12:43:30.681Z,65.70
2022-10-11T12:46:19.391Z,66.80
2022-10-11T12:48:55.300Z,66.30
2022-10-11T12:51:37.205Z,70.00
2022-10-11T12:54:27.457Z,71.60
2022-10-11T12:57:22.856Z,72.70
2022-10-11T12:59:52.370Z,70.10
2022-10-11T13:02:30.004Z,61.10
2022-10-11T13:05:08.940Z,59.50
2022-10-11T13:07:37.253Z,55.50
2022-10-11T13:10:06.983Z,55.40
2022-10-11T13:12:41.053Z,54.60
2022-10-11T13:15:16.468Z,54.00
2022-10-11T13:17:44.644Z,54.10
2022-10-11T13:20:20.240Z,54.10
2022-10-11T13:22:50.707Z,54.50
2022-10-11T13:25:22.052Z,55.30
2022-10-11T13:27:52.280Z,55.40
2022-10-11T13:30:25.930Z,55.30
2022-10-11T13:32:54.625Z,55.50
2022-10-11T13:35:29.449Z,54.60
2022-10-11T13:37:57.685Z,54.90
2022-10-11T13:40:26.270Z,55.30
2022-10-11T13:42:56.159Z,55.00
2022-10-11T13:45:27.056Z,56.80
2022-10-11T13:47:56.363Z,56.00
2022-10-11T13:50:31.831Z,55.40
2022-10-11T13:53:02.435Z,55.10
2022-10-11T13:55:33.576Z,55.10
2022-10-11T13:58:04.190Z,56.40
2022-10-11T14:00:40.207Z,56.90
2022-10-11T14:03:18.282Z,58.40
2022-10-11T14:05:54.872Z,58.00
2022-10-11T14:08:28.180Z,59.30
2022-10-11T14:10:58.552Z,62.20
2022-10-11T14:13:32.593Z,63.00
2022-10-11T14:16:05.430Z,63.00
2022-10-11T14:18:39.897Z,60.70
2022-10-11T14:21:28.248Z,61.70
2022-10-11T14:23:57.938Z,60.30
2022-10-11T14:26:27.888Z,63.00
2022-10-11T14:28:59.581Z,61.20
2022-10-11T14:31:32.218Z,62.20
2022-10-11T14:34:00.446Z,63.80
2022-10-11T14:36:28.629Z,64.90
2022-10-11T14:38:56.739Z,63.80
2022-10-11T14:41:25.061Z,67.60
2022-10-11T14:43:56.309Z,68.40
2022-10-11T14:46:26.275Z,70.10
2022-10-11T14:48:56.818Z,68.40
2022-10-11T14:51:30.289Z,65.80
2022-10-11T14:53:59.154Z,66.80
2022-10-11T14:56:27.437Z,69.40
2022-10-11T14:58:55.535Z,71.20
2022-10-11T15:01:23.739Z,71.10
2022-10-11T15:03:52.007Z,71.20
2022-10-11T15:06:24.257Z,71.40
2022-10-11T15:08:52.549Z,70.40
2022-10-11T15:11:22.355Z,71.90
2022-10-11T15:13:50.649Z,73.70
2022-10-11T15:16:21.263Z,74.80
2022-10-11T15:18:51.036Z,76.20
2022-10-11T15:21:22.604Z,75.70
2022-10-11T15:23:51.985Z,76.60
2022-10-11T15:26:22.486Z,78.30
2022-10-11T15:28:50.901Z,78.70
2022-10-11T15:31:19.270Z,79.50
2022-10-11T15:33:47.859Z,83.50
2022-10-11T15:36:18.381Z,84.00
2022-10-11T15:38:48.576Z,86.20
2022-10-11T15:41:18.864Z,87.90
2022-10-11T15:43:48.509Z,90.00
2022-10-11T15:46:18.814Z,90.70
2022-10-11T15:48:47.733Z,91.80
2022-10-11T15:51:17.260Z,92.10
2022-10-11T15:53:47.458Z,92.50
2022-10-11T15:56:18.752Z,92.70
2022-10-11T15:58:46.987Z,93.10
2022-10-11T16:01:17.583Z,93.70
2022-10-11T16:03:46.187Z,94.00
2022-10-11T16:06:14.399Z,94.40
2022-10-11T16:08:42.460Z,94.60
2022-10-11T16:11:13.178Z,94.90
2022-10-11T16:13:41.446Z,95.70
2022-10-11T16:16:11.791Z,95.70
2022-10-11T16:18:40.017Z,96.10
2022-10-11T16:21:10.754Z,96.40
2022-10-11T16:23:39.215Z,97.20
2022-10-11T16:26:10.115Z,97.90
2022-10-11T16:28:40.057Z,98.50
2022-10-11T16:31:09.290Z,99.00
2022-10-11T16:33:45.493Z,99.90
2022-10-11T16:36:35.714Z,99.90
2022-10-11T16:39:07.787Z,99.90
2022-10-11T16:41:36.031Z,99.90
2022-10-11T16:44:05.928Z,99.90
2022-10-11T16:46:34.853Z,99.90
2022-10-11T16:49:02.934Z,99.90
2022-10-11T16:51:30.994Z,99.90
2022-10-11T16:53:59.040Z,99.90
2022-10-11T16:56:27.993Z,99.90
2022-10-11T16:58:56.677Z,99.90
2022-10-11T17:01:26.950Z,99.90
2022-10-11T17:03:55.760Z,99.90
2022-10-11T17:06:24.429Z,99.90
2022-10-11T17:08:52.801Z,99.90
2022-10-11T17:11:22.209Z,99.90
2022-10-11T17:13:51.535Z,99.90
2022-10-11T17:16:20.015Z,99.90
2022-10-11T17:18:49.667Z,99.90
2022-10-11T17:21:19.539Z,99.90
2022-10-11T17:23:48.442Z,99.90
2022-10-11T17:26:18.759Z,99.90
2022-10-11T17:28:47.735Z,99.90
2022-10-11T17:31:16.151Z,99.90
2022-10-11T17:33:44.296Z,99.90
2022-10-11T17:36:21.711Z,99.90
2022-10-11T17:38:50.723Z,99.90
2022-10-11T17:41:19.926Z,99.90
2022-10-11T17:43:48.169Z,99.90
2022-10-11T17:46:17.563Z,99.90
2022-10-11T17:48:46.102Z,99.90
2022-10-11T17:51:17.937Z,99.90
2022-10-11T17:53:46.264Z,99.90
2022-10-11T17:56:15.851Z,99.90
2022-10-11T17:58:45.130Z,99.90
2022-10-11T18:01:15.882Z,99.90
2022-10-11T18:03:45.415Z,99.90
2022-10-11T18:06:16.169Z,99.90
2022-10-11T18:08:44.228Z,99.90
2022-10-11T18:11:14.122Z,99.90
2022-10-11T18:13:45.963Z,99.90
2022-10-11T18:16:15.130Z,99.90
2022-10-11T18:18:43.944Z,99.90
2022-10-11T18:21:12.572Z,99.90
2022-10-11T18:23:42.407Z,99.90
2022-10-11T18:26:12.575Z,99.90
2022-10-11T18:28:41.722Z,99.90
2022-10-11T18:31:13.640Z,99.90
2022-10-11T18:33:42.961Z,99.90
2022-10-11T18:36:13.512Z,99.90
2022-10-11T18:38:46.579Z,99.90
2022-10-11T18:41:16.782Z,99.90
2022-10-11T18:43:50.046Z,99.90
2022-10-11T18:46:19.267Z,99.90
2022-10-11T18:48:49.278Z,99.90
2022-10-11T18:51:19.582Z,99.90
2022-10-11T18:53:50.018Z,99.90
2022-10-11T18:56:20.882Z,99.90
2022-10-11T18:58:50.281Z,99.90
2022-10-11T19:01:20.938Z,99.90
2022-10-11T19:03:52.448Z,99.90
2022-10-11T19:06:22.994Z,99.90
2022-10-11T19:08:54.062Z,99.90
2022-10-11T19:11:25.251Z,99.90
2022-10-11T19:13:57.344Z,99.90
2022-10-11T19:16:26.272Z,99.90
2022-10-11T19:18:55.347Z,99.90
2022-10-11T19:21:24.243Z,99.90
2022-10-11T19:23:55.650Z,99.90
2022-10-11T19:26:26.290Z,99.90
2022-10-11T19:28:57.159Z,99.90
2022-10-11T19:31:25.657Z,99.90
2022-10-11T19:33:58.294Z,99.90
2022-10-11T19:36:27.533Z,99.90
2022-10-11T19:38:57.937Z,99.90
2022-10-11T19:41:27.389Z,99.90
2022-10-11T19:43:58.070Z,99.90
2022-10-11T19:46:49.760Z,99.90
2022-10-11T19:49:17.587Z,99.90
2022-10-11T19:51:46.029Z,99.90
2022-10-11T19:54:16.224Z,99.90
2022-10-11T19:56:45.324Z,99.90
2022-10-11T19:59:14.737Z,99.90
2022-10-11T20:01:45.597Z,99.90
2022-10-11T20:04:33.104Z,99.90
2022-10-11T20:07:03.146Z,99.90
2022-10-11T20:09:32.749Z,99.90
2022-10-11T20:12:00.856Z,99.90
2022-10-11T20:14:29.048Z,99.90
2022-10-11T20:16:57.148Z,99.90
2022-10-11T20:19:30.361Z,99.90
2022-10-11T20:21:59.113Z,99.90
2022-10-11T20:24:29.006Z,99.90
2022-10-11T20:26:58.617Z,99.90
2022-10-11T20:29:27.226Z,99.90
2022-10-11T20:31:56.243Z,99.90
2022-10-11T20:34:24.401Z,99.90
2022-10-11T20:36:52.479Z,99.90
2022-10-11T20:39:20.667Z,99.90
2022-10-11T20:41:48.780Z,99.90
2022-10-11T20:44:18.288Z,99.90
2022-10-11T20:46:46.330Z,99.90
2022-10-11T20:49:14.384Z,99.90
2022-10-11T20:51:43.818Z,99.90
2022-10-11T20:54:12.256Z,99.90
2022-10-11T20:56:40.388Z,99.90
2022-10-11T20:59:08.914Z,99.90
2022-10-11T21:01:40.291Z,99.90
2022-10-11T21:04:11.184Z,99.90
2022-10-11T21:06:39.328Z,99.90
2022-10-11T21:09:09.333Z,99.90
2022-10-11T21:11:39.434Z,99.90
2022-10-11T21:14:07.747Z,99.90
2022-10-11T21:16:35.908Z,99.90
2022-10-11T21:19:06.204Z,99.90
2022-10-11T21:21:34.593Z,99.90
2022-10-11T21:24:03.590Z,99.90
2022-10-11T21:26:32.428Z,99.90
2022-10-11T21:29:00.496Z,99.90
2022-10-11T21:31:33.528Z,99.90
2022-10-11T21:34:02.380Z,99.90
2022-10-11T21:36:31.898Z,99.90
2022-10-11T21:39:00.001Z,99.90
2022-10-11T21:41:29.914Z,99.90
2022-10-11T21:43:58.533Z,99.90
2022-10-11T21:46:47.705Z,99.90
2022-10-11T21:49:16.429Z,99.90
2022-10-11T21:51:46.447Z,99.90
2022-10-11T21:54:14.522Z,99.90
2022-10-11T21:56:43.208Z,99.90
2022-10-11T21:59:12.581Z,99.90
2022-10-11T22:01:41.237Z,99.90
2022-10-11T22:04:09.532Z,99.90
2022-10-11T22:06:38.995Z,99.90
2022-10-11T22:09:09.278Z,99.90
2022-10-11T22:11:38.197Z,99.90
2022-10-11T22:14:06.995Z,99.90
2022-10-11T22:16:35.911Z,99.90
2022-10-11T22:19:04.361Z,99.90
2022-10-11T22:21:32.536Z,99.90
2022-10-11T22:24:00.644Z,99.90
2022-10-11T22:26:32.196Z,99.90
2022-10-11T22:29:00.836Z,99.90
2022-10-11T22:31:29.835Z,99.90
2022-10-11T22:33:59.453Z,99.90
2022-10-11T22:36:28.205Z,99.90
2022-10-11T22:38:56.328Z,99.90
2022-10-11T22:41:24.781Z,99.90
2022-10-11T22:43:54.282Z,99.90
2022-10-11T22:46:22.432Z,99.90
2022-10-11T22:48:50.525Z,99.90
2022-10-11T22:51:18.730Z,99.90
2022-10-11T22:53:47.111Z,99.90
2022-10-11T22:56:15.358Z,99.90
2022-10-11T22:58:43.535Z,99.90
2022-10-11T23:01:16.003Z,99.90
2022-10-11T23:03:44.379Z,99.90
2022-10-11T23:06:12.544Z,99.90
2022-10-11T23:08:40.652Z,99.90
2022-10-11T23:11:09.213Z,99.90
2022-10-11T23:13:37.587Z,99.90
2022-10-11T23:16:09.881Z,99.90
2022-10-11T23:18:39.440Z,99.90
2022-10-11T23:21:08.061Z,99.90
2022-10-11T23:23:37.208Z,99.90
2022-10-11T23:26:07.559Z,99.90
2022-10-11T23:28:36.329Z,99.90
2022-10-11T23:31:08.791Z,99.90
2022-10-11T23:33:37.173Z,99.90
2022-10-11T23:36:07.477Z,99.90
2022-10-11T23:38:35.578Z,99.90
2022-10-11T23:41:03.923Z,99.90
2022-10-11T23:43:32.011Z,99.90
2022-10-11T23:46:00.427Z,99.90
2022-10-11T23:48:28.613Z,99.90
2022-10-11T23:50:56.665Z,99.90
2022-10-11T23:53:26.143Z,99.90
2022-10-11T23:55:54.216Z,99.90
2022-10-11T23:58:22.276Z,99.90
